sensor_id;sensor_type;location;lat;lon;timestamp;temperature;humidity
63976;DHT22;50167;47.958;21.780;2024-01-06T00:02:04;8.97;62.12
63976;DHT22;50167;47.958;21.780;2024-01-06T00:04:30;8.62;62.65
63976;DHT22;50167;47.958;21.780;2024-01-06T00:06:57;8.31;63.00
63976;DHT22;50167;47.958;21.780;2024-01-06T00:09:23;8.07;63.87
63976;DHT22;50167;47.958;21.780;2024-01-06T00:11:49;7.82;64.73
63976;DHT22;50167;47.958;21.780;2024-01-06T00:14:16;7.57;65.26
63976;DHT22;50167;47.958;21.780;2024-01-06T00:16:42;7.45;66.00
63976;DHT22;50167;47.958;21.780;2024-01-06T00:19:08;7.36;66.59
63976;DHT22;50167;47.958;21.780;2024-01-06T00:21:34;7.26;66.96
63976;DHT22;50167;47.958;21.780;2024-01-06T00:24:00;7.14;67.12
63976;DHT22;50167;47.958;21.780;2024-01-06T00:26:27;7.06;67.58
63976;DHT22;50167;47.958;21.780;2024-01-06T00:28:53;7.01;67.76
63976;DHT22;50167;47.958;21.780;2024-01-06T00:31:19;6.91;67.60
63976;DHT22;50167;47.958;21.780;2024-01-06T00:33:45;6.76;68.14
63976;DHT22;50167;47.958;21.780;2024-01-06T00:36:12;6.69;68.86
63976;DHT22;50167;47.958;21.780;2024-01-06T00:38:38;6.61;69.07
63976;DHT22;50167;47.958;21.780;2024-01-06T00:41:05;6.53;68.99
63976;DHT22;50167;47.958;21.780;2024-01-06T00:43:31;6.46;69.56
63976;DHT22;50167;47.958;21.780;2024-01-06T00:45:57;6.43;70.03
63976;DHT22;50167;47.958;21.780;2024-01-06T00:48:23;6.43;70.06
63976;DHT22;50167;47.958;21.780;2024-01-06T00:50:50;6.33;70.04
63976;DHT22;50167;47.958;21.780;2024-01-06T00:53:16;6.33;70.52
63976;DHT22;50167;47.958;21.780;2024-01-06T00:55:42;6.38;70.74
63976;DHT22;50167;47.958;21.780;2024-01-06T00:58:09;6.31;70.76
63976;DHT22;50167;47.958;21.780;2024-01-06T01:00:35;6.24;70.74
63976;DHT22;50167;47.958;21.780;2024-01-06T01:03:02;6.10;70.72
63976;DHT22;50167;47.958;21.780;2024-01-06T01:05:28;6.00;71.24
63976;DHT22;50167;47.958;21.780;2024-01-06T01:07:54;5.94;71.38
63976;DHT22;50167;47.958;21.780;2024-01-06T01:10:21;5.90;71.58
63976;DHT22;50167;47.958;21.780;2024-01-06T01:12:47;5.90;71.74
63976;DHT22;50167;47.958;21.780;2024-01-06T01:15:14;5.87;71.78
63976;DHT22;50167;47.958;21.780;2024-01-06T01:17:44;5.89;71.91
63976;DHT22;50167;47.958;21.780;2024-01-06T01:20:11;5.91;71.80
63976;DHT22;50167;47.958;21.780;2024-01-06T01:22:37;5.89;71.63
63976;DHT22;50167;47.958;21.780;2024-01-06T01:25:04;5.87;71.47
63976;DHT22;50167;47.958;21.780;2024-01-06T01:27:32;5.81;71.33
63976;DHT22;50167;47.958;21.780;2024-01-06T01:29:58;5.77;71.52
63976;DHT22;50167;47.958;21.780;2024-01-06T01:32:25;5.76;71.62
63976;DHT22;50167;47.958;21.780;2024-01-06T01:34:51;5.73;71.77
63976;DHT22;50167;47.958;21.780;2024-01-06T01:37:17;5.70;72.06
63976;DHT22;50167;47.958;21.780;2024-01-06T01:39:43;5.67;72.03
63976;DHT22;50167;47.958;21.780;2024-01-06T01:42:10;5.62;72.16
63976;DHT22;50167;47.958;21.780;2024-01-06T01:44:36;5.54;72.44
63976;DHT22;50167;47.958;21.780;2024-01-06T01:47:04;5.49;72.44
63976;DHT22;50167;47.958;21.780;2024-01-06T01:49:31;5.46;72.43
63976;DHT22;50167;47.958;21.780;2024-01-06T01:51:58;5.46;72.64
63976;DHT22;50167;47.958;21.780;2024-01-06T01:54:25;5.45;72.53
63976;DHT22;50167;47.958;21.780;2024-01-06T01:56:52;5.41;72.49
63976;DHT22;50167;47.958;21.780;2024-01-06T01:59:20;5.38;72.70
63976;DHT22;50167;47.958;21.780;2024-01-06T02:01:47;5.36;72.77
63976;DHT22;50167;47.958;21.780;2024-01-06T02:04:13;5.36;72.65
63976;DHT22;50167;47.958;21.780;2024-01-06T02:06:40;5.32;72.59
63976;DHT22;50167;47.958;21.780;2024-01-06T02:09:06;5.33;72.88
63976;DHT22;50167;47.958;21.780;2024-01-06T02:11:32;5.32;72.93
63976;DHT22;50167;47.958;21.780;2024-01-06T02:13:59;5.31;72.75
63976;DHT22;50167;47.958;21.780;2024-01-06T02:16:26;5.28;72.99
63976;DHT22;50167;47.958;21.780;2024-01-06T02:18:52;5.29;73.09
63976;DHT22;50167;47.958;21.780;2024-01-06T02:21:21;5.28;73.02
63976;DHT22;50167;47.958;21.780;2024-01-06T02:23:48;5.24;73.15
63976;DHT22;50167;47.958;21.780;2024-01-06T02:26:16;5.21;73.14
63976;DHT22;50167;47.958;21.780;2024-01-06T02:28:42;5.19;73.22
63976;DHT22;50167;47.958;21.780;2024-01-06T02:31:10;5.19;73.36
63976;DHT22;50167;47.958;21.780;2024-01-06T02:33:36;5.25;73.44
63976;DHT22;50167;47.958;21.780;2024-01-06T02:36:04;5.26;73.41
63976;DHT22;50167;47.958;21.780;2024-01-06T02:38:30;5.31;73.34
63976;DHT22;50167;47.958;21.780;2024-01-06T02:40:56;5.28;73.35
63976;DHT22;50167;47.958;21.780;2024-01-06T02:43:23;5.19;73.34
63976;DHT22;50167;47.958;21.780;2024-01-06T02:45:49;5.18;73.71
63976;DHT22;50167;47.958;21.780;2024-01-06T02:48:16;5.94;76.52
63976;DHT22;50167;47.958;21.780;2024-01-06T02:50:42;6.46;75.29
63976;DHT22;50167;47.958;21.780;2024-01-06T02:53:09;6.82;74.17
63976;DHT22;50167;47.958;21.780;2024-01-06T02:55:35;7.67;74.17
63976;DHT22;50167;47.958;21.780;2024-01-06T02:58:02;8.14;70.53
63976;DHT22;50167;47.958;21.780;2024-01-06T03:00:28;8.25;68.35
63976;DHT22;50167;47.958;21.780;2024-01-06T03:02:54;8.35;67.42
63976;DHT22;50167;47.958;21.780;2024-01-06T03:05:20;8.32;66.81
63976;DHT22;50167;47.958;21.780;2024-01-06T03:07:46;8.66;66.90
63976;DHT22;50167;47.958;21.780;2024-01-06T03:10:13;9.18;66.47
63976;DHT22;50167;47.958;21.780;2024-01-06T03:12:39;9.55;64.90
63976;DHT22;50167;47.958;21.780;2024-01-06T03:15:06;9.69;63.70
63976;DHT22;50167;47.958;21.780;2024-01-06T03:17:33;9.70;63.02
63976;DHT22;50167;47.958;21.780;2024-01-06T03:19:59;9.73;62.15
63976;DHT22;50167;47.958;21.780;2024-01-06T03:22:25;9.92;62.73
63976;DHT22;50167;47.958;21.780;2024-01-06T03:24:52;10.01;61.02
63976;DHT22;50167;47.958;21.780;2024-01-06T03:27:18;9.92;60.89
63976;DHT22;50167;47.958;21.780;2024-01-06T03:29:44;9.94;60.77
63976;DHT22;50167;47.958;21.780;2024-01-06T03:32:10;9.72;60.03
63976;DHT22;50167;47.958;21.780;2024-01-06T03:34:37;9.86;60.89
63976;DHT22;50167;47.958;21.780;2024-01-06T03:37:03;10.23;61.07
63976;DHT22;50167;47.958;21.780;2024-01-06T03:39:30;10.46;60.29
63976;DHT22;50167;47.958;21.780;2024-01-06T03:41:57;10.59;58.78
63976;DHT22;50167;47.958;21.780;2024-01-06T03:44:23;10.08;56.72
63976;DHT22;50167;47.958;21.780;2024-01-06T03:46:49;9.08;57.32
63976;DHT22;50167;47.958;21.780;2024-01-06T03:49:15;8.22;58.99
63976;DHT22;50167;47.958;21.780;2024-01-06T03:51:43;7.66;60.49
63976;DHT22;50167;47.958;21.780;2024-01-06T03:54:09;7.14;61.96
63976;DHT22;50167;47.958;21.780;2024-01-06T03:56:35;7.38;65.76
63976;DHT22;50167;47.958;21.780;2024-01-06T03:59:01;8.51;66.75
63976;DHT22;50167;47.958;21.780;2024-01-06T04:01:28;9.39;63.93
63976;DHT22;50167;47.958;21.780;2024-01-06T04:03:54;9.87;62.78
63976;DHT22;50167;47.958;21.780;2024-01-06T04:06:21;10.18;61.37
63976;DHT22;50167;47.958;21.780;2024-01-06T04:08:47;10.35;60.43
63976;DHT22;50167;47.958;21.780;2024-01-06T04:11:13;10.34;58.98
63976;DHT22;50167;47.958;21.780;2024-01-06T04:13:39;9.39;58.58
63976;DHT22;50167;47.958;21.780;2024-01-06T04:16:06;8.25;61.85
63976;DHT22;50167;47.958;21.780;2024-01-06T04:18:32;7.53;62.24
63976;DHT22;50167;47.958;21.780;2024-01-06T04:20:58;7.62;65.31
63976;DHT22;50167;47.958;21.780;2024-01-06T04:23:24;8.36;66.07
63976;DHT22;50167;47.958;21.780;2024-01-06T04:25:51;9.15;64.81
63976;DHT22;50167;47.958;21.780;2024-01-06T04:28:18;9.67;63.49
63976;DHT22;50167;47.958;21.780;2024-01-06T04:30:44;10.18;62.48
63976;DHT22;50167;47.958;21.780;2024-01-06T04:33:10;10.53;60.71
63976;DHT22;50167;47.958;21.780;2024-01-06T04:35:36;10.49;58.20
63976;DHT22;50167;47.958;21.780;2024-01-06T04:38:02;9.73;57.42
63976;DHT22;50167;47.958;21.780;2024-01-06T04:40:28;8.83;58.66
63976;DHT22;50167;47.958;21.780;2024-01-06T04:42:54;8.13;60.42
63976;DHT22;50167;47.958;21.780;2024-01-06T04:45:21;7.59;61.46
63976;DHT22;50167;47.958;21.780;2024-01-06T04:47:49;7.70;64.88
63976;DHT22;50167;47.958;21.780;2024-01-06T04:50:15;8.66;66.36
63976;DHT22;50167;47.958;21.780;2024-01-06T04:52:43;9.48;65.46
63976;DHT22;50167;47.958;21.780;2024-01-06T04:55:09;10.31;63.53
63976;DHT22;50167;47.958;21.780;2024-01-06T04:57:36;10.96;61.27
63976;DHT22;50167;47.958;21.780;2024-01-06T05:00:04;11.35;59.10
63976;DHT22;50167;47.958;21.780;2024-01-06T05:02:31;10.86;56.52
63976;DHT22;50167;47.958;21.780;2024-01-06T05:04:57;9.70;56.78
63976;DHT22;50167;47.958;21.780;2024-01-06T05:07:23;8.77;58.48
63976;DHT22;50167;47.958;21.780;2024-01-06T05:09:49;8.17;60.21
63976;DHT22;50167;47.958;21.780;2024-01-06T05:12:15;7.66;61.86
63976;DHT22;50167;47.958;21.780;2024-01-06T05:14:41;7.90;64.80
63976;DHT22;50167;47.958;21.780;2024-01-06T05:17:07;9.01;66.31
63976;DHT22;50167;47.958;21.780;2024-01-06T05:19:35;9.85;64.26
63976;DHT22;50167;47.958;21.780;2024-01-06T05:22:02;10.39;62.07
63976;DHT22;50167;47.958;21.780;2024-01-06T05:24:28;10.78;60.39
63976;DHT22;50167;47.958;21.780;2024-01-06T05:26:54;11.13;58.97
63976;DHT22;50167;47.958;21.780;2024-01-06T05:29:20;10.75;56.04
63976;DHT22;50167;47.958;21.780;2024-01-06T05:31:47;9.80;56.71
63976;DHT22;50167;47.958;21.780;2024-01-06T05:34:15;9.00;58.19
63976;DHT22;50167;47.958;21.780;2024-01-06T05:36:41;8.41;59.47
63976;DHT22;50167;47.958;21.780;2024-01-06T05:39:07;7.90;60.82
63976;DHT22;50167;47.958;21.780;2024-01-06T05:41:40;7.49;62.26
63976;DHT22;50167;47.958;21.780;2024-01-06T05:44:06;7.86;65.84
63976;DHT22;50167;47.958;21.780;2024-01-06T05:46:34;8.67;65.80
63976;DHT22;50167;47.958;21.780;2024-01-06T05:49:00;9.42;65.08
63976;DHT22;50167;47.958;21.780;2024-01-06T05:51:26;10.07;63.18
63976;DHT22;50167;47.958;21.780;2024-01-06T05:53:52;10.31;61.39
63976;DHT22;50167;47.958;21.780;2024-01-06T05:56:26;10.59;60.75
63976;DHT22;50167;47.958;21.780;2024-01-06T05:58:53;10.97;59.06
63976;DHT22;50167;47.958;21.780;2024-01-06T06:01:20;10.58;56.61
63976;DHT22;50167;47.958;21.780;2024-01-06T06:03:47;9.66;57.08
63976;DHT22;50167;47.958;21.780;2024-01-06T06:06:13;8.89;58.14
63976;DHT22;50167;47.958;21.780;2024-01-06T06:08:44;8.31;59.71
63976;DHT22;50167;47.958;21.780;2024-01-06T06:11:11;7.86;61.13
63976;DHT22;50167;47.958;21.780;2024-01-06T06:13:39;7.50;62.04
63976;DHT22;50167;47.958;21.780;2024-01-06T06:16:09;8.11;66.65
63976;DHT22;50167;47.958;21.780;2024-01-06T06:18:35;9.45;65.72
63976;DHT22;50167;47.958;21.780;2024-01-06T06:21:02;10.27;62.82
63976;DHT22;50167;47.958;21.780;2024-01-06T06:23:33;10.80;60.36
63976;DHT22;50167;47.958;21.780;2024-01-06T06:25:59;11.15;58.76
63976;DHT22;50167;47.958;21.780;2024-01-06T06:28:25;10.80;56.11
63976;DHT22;50167;47.958;21.780;2024-01-06T06:30:52;9.90;56.35
63976;DHT22;50167;47.958;21.780;2024-01-06T06:33:18;9.21;57.90
63976;DHT22;50167;47.958;21.780;2024-01-06T06:35:45;8.66;59.44
63976;DHT22;50167;47.958;21.780;2024-01-06T06:38:11;8.22;60.43
63976;DHT22;50167;47.958;21.780;2024-01-06T06:40:37;7.96;61.49
63976;DHT22;50167;47.958;21.780;2024-01-06T06:43:03;8.59;66.06
63976;DHT22;50167;47.958;21.780;2024-01-06T06:45:29;10.11;65.05
63976;DHT22;50167;47.958;21.780;2024-01-06T06:47:55;10.96;61.52
63976;DHT22;50167;47.958;21.780;2024-01-06T06:50:21;11.40;59.14
63976;DHT22;50167;47.958;21.780;2024-01-06T06:52:49;11.06;56.26
63976;DHT22;50167;47.958;21.780;2024-01-06T06:55:15;10.17;56.44
63976;DHT22;50167;47.958;21.780;2024-01-06T06:57:41;9.45;57.73
63976;DHT22;50167;47.958;21.780;2024-01-06T07:00:08;8.90;59.11
63976;DHT22;50167;47.958;21.780;2024-01-06T07:02:35;8.46;60.69
63976;DHT22;50167;47.958;21.780;2024-01-06T07:05:01;8.17;61.81
63976;DHT22;50167;47.958;21.780;2024-01-06T07:07:27;8.79;66.17
63976;DHT22;50167;47.958;21.780;2024-01-06T07:09:53;10.13;65.48
63976;DHT22;50167;47.958;21.780;2024-01-06T07:12:22;11.03;62.31
63976;DHT22;50167;47.958;21.780;2024-01-06T07:14:48;11.68;59.77
63976;DHT22;50167;47.958;21.780;2024-01-06T07:17:14;11.58;56.29
63976;DHT22;50167;47.958;21.780;2024-01-06T07:19:40;10.73;56.11
63976;DHT22;50167;47.958;21.780;2024-01-06T07:22:06;10.04;57.35
63976;DHT22;50167;47.958;21.780;2024-01-06T07:24:32;9.49;58.52
63976;DHT22;50167;47.958;21.780;2024-01-06T07:26:58;9.12;59.85
63976;DHT22;50167;47.958;21.780;2024-01-06T07:29:25;8.83;60.84
63976;DHT22;50167;47.958;21.780;2024-01-06T07:31:51;8.53;61.67
63976;DHT22;50167;47.958;21.780;2024-01-06T07:34:17;9.14;65.99
63976;DHT22;50167;47.958;21.780;2024-01-06T07:36:43;10.78;65.45
63976;DHT22;50167;47.958;21.780;2024-01-06T07:39:10;11.83;61.33
63976;DHT22;50167;47.958;21.780;2024-01-06T07:41:36;12.37;59.01
63976;DHT22;50167;47.958;21.780;2024-01-06T07:44:02;12.20;55.12
63976;DHT22;50167;47.958;21.780;2024-01-06T07:46:29;11.24;55.59
63976;DHT22;50167;47.958;21.780;2024-01-06T07:48:55;10.48;56.97
63976;DHT22;50167;47.958;21.780;2024-01-06T07:51:21;9.89;57.94
63976;DHT22;50167;47.958;21.780;2024-01-06T07:53:47;9.46;59.44
63976;DHT22;50167;47.958;21.780;2024-01-06T07:56:13;9.08;60.61
63976;DHT22;50167;47.958;21.780;2024-01-06T07:58:40;8.80;61.74
63976;DHT22;50167;47.958;21.780;2024-01-06T08:01:06;9.49;65.73
63976;DHT22;50167;47.958;21.780;2024-01-06T08:03:32;11.00;64.92
63976;DHT22;50167;47.958;21.780;2024-01-06T08:05:58;11.70;60.91
63976;DHT22;50167;47.958;21.780;2024-01-06T08:08:24;12.09;59.62
63976;DHT22;50167;47.958;21.780;2024-01-06T08:10:50;11.90;57.00
63976;DHT22;50167;47.958;21.780;2024-01-06T08:13:17;11.07;57.70
63976;DHT22;50167;47.958;21.780;2024-01-06T08:15:43;10.39;59.42
63976;DHT22;50167;47.958;21.780;2024-01-06T08:18:09;9.89;60.81
63976;DHT22;50167;47.958;21.780;2024-01-06T08:20:35;9.49;62.26
63976;DHT22;50167;47.958;21.780;2024-01-06T08:23:03;9.82;66.09
63976;DHT22;50167;47.958;21.780;2024-01-06T08:25:30;10.92;66.82
63976;DHT22;50167;47.958;21.780;2024-01-06T08:27:56;11.73;64.57
63976;DHT22;50167;47.958;21.780;2024-01-06T08:30:22;12.15;62.05
63976;DHT22;50167;47.958;21.780;2024-01-06T08:32:49;12.54;61.57
63976;DHT22;50167;47.958;21.780;2024-01-06T08:35:15;12.75;60.87
63976;DHT22;50167;47.958;21.780;2024-01-06T08:37:42;12.92;60.35
63976;DHT22;50167;47.958;21.780;2024-01-06T08:40:11;13.06;59.95
63976;DHT22;50167;47.958;21.780;2024-01-06T08:42:37;13.17;59.67
63976;DHT22;50167;47.958;21.780;2024-01-06T08:45:04;13.31;59.05
63976;DHT22;50167;47.958;21.780;2024-01-06T08:47:31;12.85;57.69
63976;DHT22;50167;47.958;21.780;2024-01-06T08:49:57;12.03;58.56
63976;DHT22;50167;47.958;21.780;2024-01-06T08:52:23;11.31;60.20
63976;DHT22;50167;47.958;21.780;2024-01-06T08:54:49;10.76;61.31
63976;DHT22;50167;47.958;21.780;2024-01-06T08:57:15;10.29;63.24
63976;DHT22;50167;47.958;21.780;2024-01-06T08:59:42;10.66;66.62
63976;DHT22;50167;47.958;21.780;2024-01-06T09:02:08;11.58;66.21
63976;DHT22;50167;47.958;21.780;2024-01-06T09:04:34;12.21;64.91
63976;DHT22;50167;47.958;21.780;2024-01-06T09:07:00;12.79;63.36
63976;DHT22;50167;47.958;21.780;2024-01-06T09:09:26;13.14;61.36
63976;DHT22;50167;47.958;21.780;2024-01-06T09:11:54;13.30;60.63
63976;DHT22;50167;47.958;21.780;2024-01-06T09:14:20;13.48;60.39
63976;DHT22;50167;47.958;21.780;2024-01-06T09:16:46;13.54;59.51
63976;DHT22;50167;47.958;21.780;2024-01-06T09:19:13;13.10;58.03
63976;DHT22;50167;47.958;21.780;2024-01-06T09:21:39;12.15;59.10
63976;DHT22;50167;47.958;21.780;2024-01-06T09:24:05;11.35;60.84
63976;DHT22;50167;47.958;21.780;2024-01-06T09:26:32;10.73;62.58
63976;DHT22;50167;47.958;21.780;2024-01-06T09:29:02;10.84;65.38
63976;DHT22;50167;47.958;21.780;2024-01-06T09:31:29;11.52;65.73
63976;DHT22;50167;47.958;21.780;2024-01-06T09:33:55;11.94;64.91
63976;DHT22;50167;47.958;21.780;2024-01-06T09:36:22;12.24;64.24
63976;DHT22;50167;47.958;21.780;2024-01-06T09:38:48;12.51;63.59
63976;DHT22;50167;47.958;21.780;2024-01-06T09:41:14;12.69;63.43
63976;DHT22;50167;47.958;21.780;2024-01-06T09:43:40;12.86;62.46
63976;DHT22;50167;47.958;21.780;2024-01-06T09:48:49;13.10;62.16
63976;DHT22;50167;47.958;21.780;2024-01-06T09:51:19;13.19;61.52
63976;DHT22;50167;47.958;21.780;2024-01-06T09:53:59;13.35;61.36
63976;DHT22;50167;47.958;21.780;2024-01-06T09:56:27;13.54;60.89
63976;DHT22;50167;47.958;21.780;2024-01-06T09:58:54;13.60;61.37
63976;DHT22;50167;47.958;21.780;2024-01-06T10:01:21;13.66;60.20
63976;DHT22;50167;47.958;21.780;2024-01-06T10:03:48;13.68;60.77
63976;DHT22;50167;47.958;21.780;2024-01-06T10:06:15;13.81;60.95
63976;DHT22;50167;47.958;21.780;2024-01-06T10:08:51;14.06;60.32
63976;DHT22;50167;47.958;21.780;2024-01-06T10:11:24;14.24;59.84
63976;DHT22;50167;47.958;21.780;2024-01-06T10:13:52;13.85;58.56
63976;DHT22;50167;47.958;21.780;2024-01-06T10:16:21;12.86;59.33
63976;DHT22;50167;47.958;21.780;2024-01-06T10:18:48;12.00;61.74
63976;DHT22;50167;47.958;21.780;2024-01-06T10:21:15;12.01;64.22
63976;DHT22;50167;47.958;21.780;2024-01-06T10:23:43;12.72;64.81
63976;DHT22;50167;47.958;21.780;2024-01-06T10:26:14;13.13;63.14
63976;DHT22;50167;47.958;21.780;2024-01-06T10:28:41;13.34;62.55
63976;DHT22;50167;47.958;21.780;2024-01-06T10:31:08;13.30;62.08
63976;DHT22;50167;47.958;21.780;2024-01-06T10:33:35;13.48;62.16
63976;DHT22;50167;47.958;21.780;2024-01-06T10:36:02;13.64;61.91
63976;DHT22;50167;47.958;21.780;2024-01-06T10:38:31;13.88;61.41
63976;DHT22;50167;47.958;21.780;2024-01-06T10:41:00;13.98;60.63
63976;DHT22;50167;47.958;21.780;2024-01-06T10:43:28;13.96;60.49
63976;DHT22;50167;47.958;21.780;2024-01-06T10:45:56;14.27;60.92
63976;DHT22;50167;47.958;21.780;2024-01-06T10:48:27;14.48;59.90
63976;DHT22;50167;47.958;21.780;2024-01-06T10:50:55;14.57;59.33
63976;DHT22;50167;47.958;21.780;2024-01-06T10:53:22;14.08;58.25
63976;DHT22;50167;47.958;21.780;2024-01-06T10:55:50;13.20;59.65
63976;DHT22;50167;47.958;21.780;2024-01-06T10:58:18;12.51;61.35
63976;DHT22;50167;47.958;21.780;2024-01-06T11:00:46;11.96;62.70
63976;DHT22;50167;47.958;21.780;2024-01-06T11:03:14;12.17;65.74
63976;DHT22;50167;47.958;21.780;2024-01-06T11:05:42;12.92;65.59
63976;DHT22;50167;47.958;21.780;2024-01-06T11:08:10;13.62;63.86
63976;DHT22;50167;47.958;21.780;2024-01-06T11:10:38;14.10;62.74
63976;DHT22;50167;47.958;21.780;2024-01-06T11:13:16;14.44;60.98
63976;DHT22;50167;47.958;21.780;2024-01-06T11:15:48;14.68;60.54
63976;DHT22;50167;47.958;21.780;2024-01-06T11:18:31;14.81;59.79
63976;DHT22;50167;47.958;21.780;2024-01-06T11:21:23;14.44;58.17
63976;DHT22;50167;47.958;21.780;2024-01-06T11:24:15;13.35;58.75
63976;DHT22;50167;47.958;21.780;2024-01-06T11:26:44;12.55;62.25
63976;DHT22;50167;47.958;21.780;2024-01-06T11:29:11;12.52;63.61
63976;DHT22;50167;47.958;21.780;2024-01-06T11:31:37;13.12;63.79
63976;DHT22;50167;47.958;21.780;2024-01-06T11:34:16;13.55;62.93
63976;DHT22;50167;47.958;21.780;2024-01-06T11:36:44;13.89;62.38
63976;DHT22;50167;47.958;21.780;2024-01-06T11:39:37;14.08;61.17
63976;DHT22;50167;47.958;21.780;2024-01-06T11:42:14;14.20;61.03
63976;DHT22;50167;47.958;21.780;2024-01-06T11:44:44;14.30;60.12
63976;DHT22;50167;47.958;21.780;2024-01-06T11:47:12;14.23;59.77
63976;DHT22;50167;47.958;21.780;2024-01-06T11:49:39;14.20;59.59
63976;DHT22;50167;47.958;21.780;2024-01-06T11:52:07;13.88;58.59
63976;DHT22;50167;47.958;21.780;2024-01-06T11:54:33;13.04;59.74
63976;DHT22;50167;47.958;21.780;2024-01-06T11:57:00;12.31;61.46
63976;DHT22;50167;47.958;21.780;2024-01-06T11:59:26;11.79;63.54
63976;DHT22;50167;47.958;21.780;2024-01-06T12:01:53;12.01;65.76
63976;DHT22;50167;47.958;21.780;2024-01-06T12:04:19;12.74;65.47
63976;DHT22;50167;47.958;21.780;2024-01-06T12:06:47;13.54;63.84
63976;DHT22;50167;47.958;21.780;2024-01-06T12:09:16;13.93;62.15
63976;DHT22;50167;47.958;21.780;2024-01-06T12:11:44;14.38;60.75
63976;DHT22;50167;47.958;21.780;2024-01-06T12:14:13;14.63;59.53
63976;DHT22;50167;47.958;21.780;2024-01-06T12:16:39;14.27;57.71
63976;DHT22;50167;47.958;21.780;2024-01-06T12:19:05;13.30;58.81
63976;DHT22;50167;47.958;21.780;2024-01-06T12:21:31;12.48;59.72
63976;DHT22;50167;47.958;21.780;2024-01-06T12:24:19;11.82;61.09
63976;DHT22;50167;47.958;21.780;2024-01-06T12:26:48;11.40;64.98
63976;DHT22;50167;47.958;21.780;2024-01-06T12:29:15;12.41;66.04
63976;DHT22;50167;47.958;21.780;2024-01-06T12:31:43;13.23;63.82
63976;DHT22;50167;47.958;21.780;2024-01-06T12:34:10;13.77;61.48
63976;DHT22;50167;47.958;21.780;2024-01-06T12:36:41;13.65;59.66
63976;DHT22;50167;47.958;21.780;2024-01-06T12:39:13;12.95;59.20
63976;DHT22;50167;47.958;21.780;2024-01-06T12:41:43;12.10;60.42
63976;DHT22;50167;47.958;21.780;2024-01-06T12:44:10;11.47;61.54
63976;DHT22;50167;47.958;21.780;2024-01-06T12:46:36;11.72;65.54
63976;DHT22;50167;47.958;21.780;2024-01-06T12:49:03;12.64;65.30
63976;DHT22;50167;47.958;21.780;2024-01-06T12:51:29;13.30;63.63
63976;DHT22;50167;47.958;21.780;2024-01-06T12:53:55;13.66;61.97
63976;DHT22;50167;47.958;21.780;2024-01-06T12:56:21;13.86;61.15
63976;DHT22;50167;47.958;21.780;2024-01-06T12:58:48;14.17;60.51
63976;DHT22;50167;47.958;21.780;2024-01-06T13:01:14;14.41;59.62
63976;DHT22;50167;47.958;21.780;2024-01-06T13:03:40;13.99;57.89
63976;DHT22;50167;47.958;21.780;2024-01-06T13:06:07;13.04;58.95
63976;DHT22;50167;47.958;21.780;2024-01-06T13:08:33;12.26;61.16
63976;DHT22;50167;47.958;21.780;2024-01-06T13:10:59;11.64;62.13
63976;DHT22;50167;47.958;21.780;2024-01-06T13:13:25;11.68;65.18
63976;DHT22;50167;47.958;21.780;2024-01-06T13:15:51;12.30;65.40
63976;DHT22;50167;47.958;21.780;2024-01-06T13:18:18;12.83;64.73
63976;DHT22;50167;47.958;21.780;2024-01-06T13:20:44;13.22;63.12
63976;DHT22;50167;47.958;21.780;2024-01-06T13:23:12;13.26;62.41
63976;DHT22;50167;47.958;21.780;2024-01-06T13:25:38;13.16;62.00
63976;DHT22;50167;47.958;21.780;2024-01-06T13:28:07;13.17;62.66
63976;DHT22;50167;47.958;21.780;2024-01-06T13:30:33;13.57;62.69
63976;DHT22;50167;47.958;21.780;2024-01-06T13:33:00;13.75;61.19
63976;DHT22;50167;47.958;21.780;2024-01-06T13:35:26;13.71;60.87
63976;DHT22;50167;47.958;21.780;2024-01-06T13:37:55;13.79;60.91
63976;DHT22;50167;47.958;21.780;2024-01-06T13:40:24;14.00;60.55
63976;DHT22;50167;47.958;21.780;2024-01-06T13:42:51;14.02;59.51
63976;DHT22;50167;47.958;21.780;2024-01-06T13:45:18;13.55;58.99
63976;DHT22;50167;47.958;21.780;2024-01-06T13:47:45;12.69;60.05
63976;DHT22;50167;47.958;21.780;2024-01-06T13:50:13;11.96;61.48
63976;DHT22;50167;47.958;21.780;2024-01-06T13:52:39;11.34;62.97
63976;DHT22;50167;47.958;21.780;2024-01-06T13:55:06;11.48;65.98
63976;DHT22;50167;47.958;21.780;2024-01-06T13:57:34;12.01;65.67
63976;DHT22;50167;47.958;21.780;2024-01-06T14:00:01;12.38;65.39
63976;DHT22;50167;47.958;21.780;2024-01-06T14:02:29;12.80;64.90
63976;DHT22;50167;47.958;21.780;2024-01-06T14:04:55;13.03;63.33
63976;DHT22;50167;47.958;21.780;2024-01-06T14:07:21;13.26;63.20
63976;DHT22;50167;47.958;21.780;2024-01-06T14:09:48;13.48;62.31
63976;DHT22;50167;47.958;21.780;2024-01-06T14:12:14;13.50;61.56
63976;DHT22;50167;47.958;21.780;2024-01-06T14:14:41;13.81;61.44
63976;DHT22;50167;47.958;21.780;2024-01-06T14:17:09;14.06;60.36
63976;DHT22;50167;47.958;21.780;2024-01-06T14:19:35;14.03;59.22
63976;DHT22;50167;47.958;21.780;2024-01-06T14:22:01;13.26;58.62
63976;DHT22;50167;47.958;21.780;2024-01-06T14:24:29;12.33;59.84
63976;DHT22;50167;47.958;21.780;2024-01-06T14:26:55;11.57;61.91
63976;DHT22;50167;47.958;21.780;2024-01-06T14:29:21;11.42;65.02
63976;DHT22;50167;47.958;21.780;2024-01-06T14:31:48;11.90;65.39
63976;DHT22;50167;47.958;21.780;2024-01-06T14:34:14;12.59;65.35
63976;DHT22;50167;47.958;21.780;2024-01-06T14:36:44;13.03;63.88
63976;DHT22;50167;47.958;21.780;2024-01-06T14:39:18;13.04;63.04
63976;DHT22;50167;47.958;21.780;2024-01-06T14:41:46;12.98;62.61
63976;DHT22;50167;47.958;21.780;2024-01-06T14:44:12;12.99;62.52
63976;DHT22;50167;47.958;21.780;2024-01-06T14:46:39;13.03;62.52
63976;DHT22;50167;47.958;21.780;2024-01-06T14:49:08;13.16;62.46
63976;DHT22;50167;47.958;21.780;2024-01-06T14:51:34;13.44;62.23
63976;DHT22;50167;47.958;21.780;2024-01-06T14:54:00;13.58;61.49
63976;DHT22;50167;47.958;21.780;2024-01-06T14:56:26;13.58;60.96
63976;DHT22;50167;47.958;21.780;2024-01-06T14:58:53;13.52;61.00
63976;DHT22;50167;47.958;21.780;2024-01-06T15:01:19;13.47;60.84
63976;DHT22;50167;47.958;21.780;2024-01-06T15:03:45;13.40;61.08
63976;DHT22;50167;47.958;21.780;2024-01-06T15:06:11;13.35;60.74
63976;DHT22;50167;47.958;21.780;2024-01-06T15:08:38;13.29;61.04
63976;DHT22;50167;47.958;21.780;2024-01-06T15:11:04;13.24;61.37
63976;DHT22;50167;47.958;21.780;2024-01-06T15:13:32;13.31;61.42
63976;DHT22;50167;47.958;21.780;2024-01-06T15:15:58;13.44;61.25
63976;DHT22;50167;47.958;21.780;2024-01-06T15:18:24;13.45;61.19
63976;DHT22;50167;47.958;21.780;2024-01-06T15:20:51;13.70;60.95
63976;DHT22;50167;47.958;21.780;2024-01-06T15:23:17;13.70;60.21
63976;DHT22;50167;47.958;21.780;2024-01-06T15:25:45;13.68;60.33